sensor_id;sensor_type;location;lat;lon;timestamp;P1;durP1;ratioP1;P2;durP2;ratioP2
54823;SDS011;40724;53.196;5.980;2022-12-24T00:01:37;20.33;;;13.10;;
54823;SDS011;40724;53.196;5.980;2022-12-24T00:04:04;20.55;;;14.25;;
54823;SDS011;40724;53.196;5.980;2022-12-24T00:06:30;23.92;;;13.90;;
54823;SDS011;40724;53.196;5.980;2022-12-24T00:08:56;22.02;;;14.05;;
54823;SDS011;40724;53.196;5.980;2022-12-24T00:11:22;19.08;;;13.38;;
54823;SDS011;40724;53.196;5.980;2022-12-24T00:13:48;18.55;;;12.48;;
54823;SDS011;40724;53.196;5.980;2022-12-24T00:16:14;21.33;;;14.38;;
54823;SDS011;40724;53.196;5.980;2022-12-24T00:18:41;23.08;;;13.25;;
54823;SDS011;40724;53.196;5.980;2022-12-24T00:21:07;22.65;;;16.08;;
54823;SDS011;40724;53.196;5.980;2022-12-24T00:23:33;24.02;;;16.05;;
54823;SDS011;40724;53.196;5.980;2022-12-24T00:25:59;23.33;;;16.58;;
54823;SDS011;40724;53.196;5.980;2022-12-24T00:28:25;26.88;;;18.02;;
54823;SDS011;40724;53.196;5.980;2022-12-24T00:30:52;28.70;;;18.80;;
54823;SDS011;40724;53.196;5.980;2022-12-24T00:33:18;27.60;;;18.30;;
54823;SDS011;40724;53.196;5.980;2022-12-24T00:35:44;23.63;;;16.00;;
54823;SDS011;40724;53.196;5.980;2022-12-24T00:38:14;22.45;;;14.20;;
54823;SDS011;40724;53.196;5.980;2022-12-24T00:40:40;21.55;;;14.68;;
54823;SDS011;40724;53.196;5.980;2022-12-24T00:43:06;23.77;;;15.40;;
54823;SDS011;40724;53.196;5.980;2022-12-24T00:45:32;26.88;;;16.02;;
54823;SDS011;40724;53.196;5.980;2022-12-24T00:47:58;22.17;;;13.45;;
54823;SDS011;40724;53.196;5.980;2022-12-24T00:50:25;20.85;;;13.20;;
54823;SDS011;40724;53.196;5.980;2022-12-24T00:52:51;21.05;;;14.20;;
54823;SDS011;40724;53.196;5.980;2022-12-24T00:55:17;21.05;;;13.98;;
54823;SDS011;40724;53.196;5.980;2022-12-24T00:57:43;23.20;;;15.18;;
54823;SDS011;40724;53.196;5.980;2022-12-24T01:00:09;24.67;;;14.48;;
54823;SDS011;40724;53.196;5.980;2022-12-24T01:02:36;19.63;;;12.63;;
54823;SDS011;40724;53.196;5.980;2022-12-24T01:05:02;23.80;;;15.77;;
54823;SDS011;40724;53.196;5.980;2022-12-24T01:07:35;23.15;;;14.48;;
54823;SDS011;40724;53.196;5.980;2022-12-24T01:10:02;24.02;;;14.80;;
54823;SDS011;40724;53.196;5.980;2022-12-24T01:12:28;21.30;;;14.80;;
54823;SDS011;40724;53.196;5.980;2022-12-24T01:14:55;27.02;;;16.13;;
54823;SDS011;40724;53.196;5.980;2022-12-24T01:17:21;24.35;;;13.93;;
54823;SDS011;40724;53.196;5.980;2022-12-24T01:19:47;26.73;;;15.18;;
54823;SDS011;40724;53.196;5.980;2022-12-24T01:22:14;22.50;;;14.98;;
54823;SDS011;40724;53.196;5.980;2022-12-24T01:24:40;20.02;;;14.48;;
54823;SDS011;40724;53.196;5.980;2022-12-24T01:27:06;22.50;;;14.43;;
54823;SDS011;40724;53.196;5.980;2022-12-24T01:29:33;23.15;;;14.95;;
54823;SDS011;40724;53.196;5.980;2022-12-24T01:31:59;26.98;;;14.98;;
54823;SDS011;40724;53.196;5.980;2022-12-24T01:34:25;26.08;;;16.10;;
54823;SDS011;40724;53.196;5.980;2022-12-24T01:36:51;23.05;;;14.05;;
54823;SDS011;40724;53.196;5.980;2022-12-24T01:39:17;24.58;;;14.70;;
54823;SDS011;40724;53.196;5.980;2022-12-24T01:41:43;22.90;;;15.73;;
54823;SDS011;40724;53.196;5.980;2022-12-24T01:44:29;25.80;;;14.40;;
54823;SDS011;40724;53.196;5.980;2022-12-24T01:47:38;23.20;;;15.23;;
54823;SDS011;40724;53.196;5.980;2022-12-24T01:49:47;26.48;;;16.80;;
54823;SDS011;40724;53.196;5.980;2022-12-24T01:52:25;23.98;;;14.93;;
54823;SDS011;40724;53.196;5.980;2022-12-24T01:54:54;20.95;;;15.07;;
54823;SDS011;40724;53.196;5.980;2022-12-24T01:57:24;24.00;;;14.82;;
54823;SDS011;40724;53.196;5.980;2022-12-24T01:59:52;23.40;;;15.15;;
54823;SDS011;40724;53.196;5.980;2022-12-24T02:02:20;21.38;;;14.73;;
54823;SDS011;40724;53.196;5.980;2022-12-24T02:05:06;21.33;;;14.23;;
54823;SDS011;40724;53.196;5.980;2022-12-24T02:07:33;23.60;;;15.50;;
54823;SDS011;40724;53.196;5.980;2022-12-24T02:10:00;20.75;;;15.00;;
54823;SDS011;40724;53.196;5.980;2022-12-24T02:12:26;24.23;;;16.55;;
54823;SDS011;40724;53.196;5.980;2022-12-24T02:14:54;21.38;;;15.23;;
54823;SDS011;40724;53.196;5.980;2022-12-24T02:30:08;27.73;;;16.88;;
54823;SDS011;40724;53.196;5.980;2022-12-24T02:35:12;24.20;;;15.45;;
54823;SDS011;40724;53.196;5.980;2022-12-24T02:37:42;25.92;;;16.10;;
54823;SDS011;40724;53.196;5.980;2022-12-24T02:40:10;24.00;;;14.40;;
54823;SDS011;40724;53.196;5.980;2022-12-24T02:42:42;26.38;;;15.65;;
54823;SDS011;40724;53.196;5.980;2022-12-24T02:45:10;21.80;;;13.93;;
54823;SDS011;40724;53.196;5.980;2022-12-24T02:47:37;27.42;;;16.17;;
54823;SDS011;40724;53.196;5.980;2022-12-24T02:50:04;32.17;;;16.15;;
54823;SDS011;40724;53.196;5.980;2022-12-24T02:52:33;23.70;;;14.93;;
54823;SDS011;40724;53.196;5.980;2022-12-24T02:55:08;28.67;;;15.20;;
54823;SDS011;40724;53.196;5.980;2022-12-24T03:00:06;23.70;;;14.38;;
54823;SDS011;40724;53.196;5.980;2022-12-24T03:02:43;27.17;;;13.75;;
54823;SDS011;40724;53.196;5.980;2022-12-24T03:07:55;21.10;;;12.20;;
54823;SDS011;40724;53.196;5.980;2022-12-24T03:13:14;18.40;;;11.48;;
54823;SDS011;40724;53.196;5.980;2022-12-24T03:15:41;20.52;;;10.50;;
54823;SDS011;40724;53.196;5.980;2022-12-24T03:18:10;15.00;;;9.77;;
54823;SDS011;40724;53.196;5.980;2022-12-24T03:20:42;16.52;;;10.35;;
54823;SDS011;40724;53.196;5.980;2022-12-24T03:23:10;17.77;;;8.38;;
54823;SDS011;40724;53.196;5.980;2022-12-24T03:25:38;17.55;;;9.32;;
54823;SDS011;40724;53.196;5.980;2022-12-24T03:28:05;14.35;;;9.00;;
54823;SDS011;40724;53.196;5.980;2022-12-24T03:30:32;17.10;;;9.10;;
54823;SDS011;40724;53.196;5.980;2022-12-24T03:32:58;23.02;;;10.35;;
54823;SDS011;40724;53.196;5.980;2022-12-24T03:35:24;25.35;;;9.80;;
54823;SDS011;40724;53.196;5.980;2022-12-24T03:37:50;20.98;;;10.25;;
54823;SDS011;40724;53.196;5.980;2022-12-24T03:40:17;21.52;;;10.02;;
54823;SDS011;40724;53.196;5.980;2022-12-24T03:42:43;25.23;;;9.80;;
54823;SDS011;40724;53.196;5.980;2022-12-24T03:45:09;15.50;;;9.90;;
54823;SDS011;40724;53.196;5.980;2022-12-24T03:47:35;20.55;;;9.73;;
54823;SDS011;40724;53.196;5.980;2022-12-24T03:50:02;24.05;;;9.82;;
54823;SDS011;40724;53.196;5.980;2022-12-24T03:52:28;26.33;;;10.85;;
54823;SDS011;40724;53.196;5.980;2022-12-24T03:54:54;16.15;;;9.90;;
54823;SDS011;40724;53.196;5.980;2022-12-24T03:57:20;21.25;;;9.40;;
54823;SDS011;40724;53.196;5.980;2022-12-24T03:59:46;26.60;;;9.27;;
54823;SDS011;40724;53.196;5.980;2022-12-24T04:02:12;15.60;;;10.18;;
54823;SDS011;40724;53.196;5.980;2022-12-24T04:04:38;23.88;;;10.05;;
54823;SDS011;40724;53.196;5.980;2022-12-24T04:07:05;18.98;;;9.05;;
54823;SDS011;40724;53.196;5.980;2022-12-24T04:09:31;18.90;;;8.77;;
54823;SDS011;40724;53.196;5.980;2022-12-24T04:11:57;34.58;;;13.35;;
54823;SDS011;40724;53.196;5.980;2022-12-24T04:14:24;23.58;;;10.15;;
54823;SDS011;40724;53.196;5.980;2022-12-24T04:16:50;22.90;;;9.30;;
54823;SDS011;40724;53.196;5.980;2022-12-24T04:19:16;43.92;;;10.43;;
54823;SDS011;40724;53.196;5.980;2022-12-24T04:21:42;28.05;;;9.02;;
54823;SDS011;40724;53.196;5.980;2022-12-24T04:24:08;25.23;;;8.90;;
54823;SDS011;40724;53.196;5.980;2022-12-24T04:26:34;29.38;;;9.40;;
54823;SDS011;40724;53.196;5.980;2022-12-24T04:29:00;31.95;;;10.00;;
54823;SDS011;40724;53.196;5.980;2022-12-24T04:31:26;34.17;;;8.80;;
54823;SDS011;40724;53.196;5.980;2022-12-24T04:33:52;27.23;;;9.45;;
54823;SDS011;40724;53.196;5.980;2022-12-24T04:36:19;24.80;;;8.95;;
54823;SDS011;40724;53.196;5.980;2022-12-24T04:38:45;34.38;;;9.57;;
54823;SDS011;40724;53.196;5.980;2022-12-24T04:41:13;37.63;;;9.07;;
54823;SDS011;40724;53.196;5.980;2022-12-24T04:43:40;25.95;;;9.93;;
54823;SDS011;40724;53.196;5.980;2022-12-24T04:46:11;36.67;;;10.73;;
54823;SDS011;40724;53.196;5.980;2022-12-24T04:48:39;28.23;;;8.97;;
54823;SDS011;40724;53.196;5.980;2022-12-24T04:51:06;31.40;;;10.57;;
54823;SDS011;40724;53.196;5.980;2022-12-24T04:53:33;27.98;;;10.45;;
54823;SDS011;40724;53.196;5.980;2022-12-24T04:55:59;28.40;;;10.63;;
54823;SDS011;40724;53.196;5.980;2022-12-24T04:58:26;26.15;;;11.98;;
54823;SDS011;40724;53.196;5.980;2022-12-24T05:00:52;30.88;;;10.13;;
54823;SDS011;40724;53.196;5.980;2022-12-24T05:03:18;33.88;;;10.68;;
54823;SDS011;40724;53.196;5.980;2022-12-24T05:05:44;32.72;;;10.05;;
54823;SDS011;40724;53.196;5.980;2022-12-24T05:08:11;35.55;;;9.55;;
54823;SDS011;40724;53.196;5.980;2022-12-24T05:10:37;32.53;;;10.32;;
54823;SDS011;40724;53.196;5.980;2022-12-24T05:13:04;21.63;;;8.70;;
54823;SDS011;40724;53.196;5.980;2022-12-24T05:15:30;31.35;;;10.25;;
54823;SDS011;40724;53.196;5.980;2022-12-24T05:17:56;38.17;;;10.20;;
54823;SDS011;40724;53.196;5.980;2022-12-24T05:20:22;38.83;;;10.55;;
54823;SDS011;40724;53.196;5.980;2022-12-24T05:22:48;42.00;;;11.88;;
54823;SDS011;40724;53.196;5.980;2022-12-24T05:25:35;33.03;;;9.95;;
54823;SDS011;40724;53.196;5.980;2022-12-24T05:28:21;28.77;;;9.80;;
54823;SDS011;40724;53.196;5.980;2022-12-24T05:30:47;30.27;;;9.77;;
54823;SDS011;40724;53.196;5.980;2022-12-24T05:33:13;37.08;;;11.80;;
54823;SDS011;40724;53.196;5.980;2022-12-24T05:35:39;39.85;;;10.60;;
54823;SDS011;40724;53.196;5.980;2022-12-24T05:38:05;34.55;;;9.15;;
54823;SDS011;40724;53.196;5.980;2022-12-24T05:40:31;41.45;;;10.05;;
54823;SDS011;40724;53.196;5.980;2022-12-24T05:42:58;32.60;;;11.05;;
54823;SDS011;40724;53.196;5.980;2022-12-24T05:45:24;27.20;;;9.57;;
54823;SDS011;40724;53.196;5.980;2022-12-24T05:47:50;34.85;;;10.27;;
54823;SDS011;40724;53.196;5.980;2022-12-24T05:50:16;25.60;;;9.63;;
54823;SDS011;40724;53.196;5.980;2022-12-24T05:52:42;38.50;;;9.95;;
54823;SDS011;40724;53.196;5.980;2022-12-24T05:55:08;27.50;;;10.57;;
54823;SDS011;40724;53.196;5.980;2022-12-24T05:57:34;40.00;;;10.38;;
54823;SDS011;40724;53.196;5.980;2022-12-24T06:00:01;35.58;;;9.88;;
54823;SDS011;40724;53.196;5.980;2022-12-24T06:02:27;24.45;;;9.85;;
54823;SDS011;40724;53.196;5.980;2022-12-24T06:04:53;28.15;;;8.07;;
54823;SDS011;40724;53.196;5.980;2022-12-24T06:07:19;36.63;;;11.75;;
54823;SDS011;40724;53.196;5.980;2022-12-24T06:09:45;40.42;;;11.25;;
54823;SDS011;40724;53.196;5.980;2022-12-24T06:12:12;31.80;;;11.10;;
54823;SDS011;40724;53.196;5.980;2022-12-24T06:14:38;34.88;;;9.98;;
54823;SDS011;40724;53.196;5.980;2022-12-24T06:17:04;31.40;;;9.73;;
54823;SDS011;40724;53.196;5.980;2022-12-24T06:19:30;32.40;;;10.93;;
54823;SDS011;40724;53.196;5.980;2022-12-24T06:21:56;31.50;;;9.50;;
54823;SDS011;40724;53.196;5.980;2022-12-24T06:24:22;37.03;;;10.52;;
54823;SDS011;40724;53.196;5.980;2022-12-24T06:26:48;34.55;;;9.27;;
54823;SDS011;40724;53.196;5.980;2022-12-24T06:29:14;36.75;;;10.43;;
54823;SDS011;40724;53.196;5.980;2022-12-24T06:31:40;30.80;;;8.82;;
54823;SDS011;40724;53.196;5.980;2022-12-24T06:34:07;29.02;;;8.55;;
54823;SDS011;40724;53.196;5.980;2022-12-24T06:36:33;31.05;;;9.55;;
54823;SDS011;40724;53.196;5.980;2022-12-24T06:38:59;38.05;;;10.48;;
54823;SDS011;40724;53.196;5.980;2022-12-24T06:41:25;26.90;;;8.23;;
54823;SDS011;40724;53.196;5.980;2022-12-24T06:43:51;24.23;;;7.28;;
54823;SDS011;40724;53.196;5.980;2022-12-24T06:46:18;35.95;;;10.77;;
54823;SDS011;40724;53.196;5.980;2022-12-24T06:48:45;40.00;;;9.55;;
54823;SDS011;40724;53.196;5.980;2022-12-24T06:51:12;25.77;;;9.70;;
54823;SDS011;40724;53.196;5.980;2022-12-24T06:53:38;33.35;;;8.95;;
54823;SDS011;40724;53.196;5.980;2022-12-24T06:56:06;25.88;;;8.52;;
54823;SDS011;40724;53.196;5.980;2022-12-24T06:58:33;32.58;;;10.38;;
54823;SDS011;40724;53.196;5.980;2022-12-24T07:01:03;30.52;;;10.77;;
54823;SDS011;40724;53.196;5.980;2022-12-24T07:03:29;39.67;;;8.88;;
54823;SDS011;40724;53.196;5.980;2022-12-24T07:05:56;30.65;;;9.35;;
54823;SDS011;40724;53.196;5.980;2022-12-24T07:08:22;32.55;;;9.50;;
54823;SDS011;40724;53.196;5.980;2022-12-24T07:10:50;27.45;;;9.60;;
54823;SDS011;40724;53.196;5.980;2022-12-24T07:13:17;33.22;;;9.07;;
54823;SDS011;40724;53.196;5.980;2022-12-24T07:15:43;42.25;;;8.75;;
54823;SDS011;40724;53.196;5.980;2022-12-24T07:18:10;29.48;;;10.55;;
54823;SDS011;40724;53.196;5.980;2022-12-24T07:20:36;33.17;;;9.07;;
54823;SDS011;40724;53.196;5.980;2022-12-24T07:23:02;24.95;;;7.47;;
54823;SDS011;40724;53.196;5.980;2022-12-24T07:25:28;29.08;;;9.93;;
54823;SDS011;40724;53.196;5.980;2022-12-24T07:27:55;26.88;;;9.82;;
54823;SDS011;40724;53.196;5.980;2022-12-24T07:30:21;25.05;;;8.48;;
54823;SDS011;40724;53.196;5.980;2022-12-24T07:32:47;27.75;;;7.75;;
54823;SDS011;40724;53.196;5.980;2022-12-24T07:35:13;36.75;;;9.73;;
54823;SDS011;40724;53.196;5.980;2022-12-24T07:37:39;28.90;;;8.65;;
54823;SDS011;40724;53.196;5.980;2022-12-24T07:40:06;30.98;;;8.75;;
54823;SDS011;40724;53.196;5.980;2022-12-24T07:42:33;28.17;;;8.30;;
54823;SDS011;40724;53.196;5.980;2022-12-24T07:45:00;32.40;;;7.30;;
54823;SDS011;40724;53.196;5.980;2022-12-24T07:47:26;35.10;;;10.02;;
54823;SDS011;40724;53.196;5.980;2022-12-24T07:49:52;30.35;;;9.07;;
54823;SDS011;40724;53.196;5.980;2022-12-24T07:52:18;25.17;;;8.02;;
54823;SDS011;40724;53.196;5.980;2022-12-24T07:54:44;24.15;;;8.52;;
54823;SDS011;40724;53.196;5.980;2022-12-24T07:57:10;24.40;;;9.45;;
54823;SDS011;40724;53.196;5.980;2022-12-24T07:59:36;29.70;;;8.32;;
54823;SDS011;40724;53.196;5.980;2022-12-24T08:02:03;27.98;;;9.18;;
54823;SDS011;40724;53.196;5.980;2022-12-24T08:04:30;30.52;;;9.95;;
54823;SDS011;40724;53.196;5.980;2022-12-24T08:06:57;30.80;;;8.25;;
54823;SDS011;40724;53.196;5.980;2022-12-24T08:09:23;36.45;;;9.68;;
54823;SDS011;40724;53.196;5.980;2022-12-24T08:11:49;29.25;;;9.73;;
54823;SDS011;40724;53.196;5.980;2022-12-24T08:14:15;29.38;;;10.75;;
54823;SDS011;40724;53.196;5.980;2022-12-24T08:16:43;32.30;;;12.23;;
54823;SDS011;40724;53.196;5.980;2022-12-24T08:19:09;28.00;;;9.63;;
54823;SDS011;40724;53.196;5.980;2022-12-24T08:21:35;25.48;;;9.85;;
54823;SDS011;40724;53.196;5.980;2022-12-24T08:24:01;29.40;;;9.63;;
54823;SDS011;40724;53.196;5.980;2022-12-24T08:26:28;45.50;;;10.43;;
54823;SDS011;40724;53.196;5.980;2022-12-24T08:28:54;30.83;;;9.40;;
54823;SDS011;40724;53.196;5.980;2022-12-24T08:31:20;26.48;;;9.82;;
54823;SDS011;40724;53.196;5.980;2022-12-24T08:33:46;30.38;;;10.10;;
54823;SDS011;40724;53.196;5.980;2022-12-24T08:36:12;34.60;;;10.48;;
54823;SDS011;40724;53.196;5.980;2022-12-24T08:38:38;32.33;;;10.52;;
54823;SDS011;40724;53.196;5.980;2022-12-24T08:41:04;29.27;;;9.60;;
54823;SDS011;40724;53.196;5.980;2022-12-24T08:43:31;24.85;;;9.50;;
54823;SDS011;40724;53.196;5.980;2022-12-24T08:46:00;25.15;;;8.60;;
54823;SDS011;40724;53.196;5.980;2022-12-24T08:48:28;32.40;;;8.82;;
54823;SDS011;40724;53.196;5.980;2022-12-24T08:50:54;31.35;;;9.68;;
54823;SDS011;40724;53.196;5.980;2022-12-24T08:53:20;28.02;;;9.98;;
54823;SDS011;40724;53.196;5.980;2022-12-24T08:55:46;28.00;;;8.82;;
54823;SDS011;40724;53.196;5.980;2022-12-24T08:58:12;29.67;;;9.35;;
54823;SDS011;40724;53.196;5.980;2022-12-24T09:00:39;29.08;;;9.27;;
54823;SDS011;40724;53.196;5.980;2022-12-24T09:03:05;39.33;;;23.27;;
54823;SDS011;40724;53.196;5.980;2022-12-24T09:05:31;27.85;;;12.02;;
54823;SDS011;40724;53.196;5.980;2022-12-24T09:07:57;40.20;;;13.93;;
54823;SDS011;40724;53.196;5.980;2022-12-24T09:10:23;31.63;;;13.63;;
54823;SDS011;40724;53.196;5.980;2022-12-24T09:12:50;34.17;;;10.05;;
54823;SDS011;40724;53.196;5.980;2022-12-24T09:15:16;45.85;;;10.70;;
54823;SDS011;40724;53.196;5.980;2022-12-24T09:17:43;34.00;;;8.93;;
54823;SDS011;40724;53.196;5.980;2022-12-24T09:20:09;39.92;;;11.52;;
54823;SDS011;40724;53.196;5.980;2022-12-24T09:22:36;30.63;;;10.80;;
54823;SDS011;40724;53.196;5.980;2022-12-24T09:25:03;37.08;;;9.95;;
54823;SDS011;40724;53.196;5.980;2022-12-24T09:27:30;28.17;;;9.02;;
54823;SDS011;40724;53.196;5.980;2022-12-24T09:29:56;28.60;;;8.63;;
54823;SDS011;40724;53.196;5.980;2022-12-24T09:32:22;24.38;;;9.82;;
54823;SDS011;40724;53.196;5.980;2022-12-24T09:34:49;33.20;;;9.55;;
54823;SDS011;40724;53.196;5.980;2022-12-24T09:37:18;30.70;;;9.88;;
54823;SDS011;40724;53.196;5.980;2022-12-24T09:39:44;33.42;;;10.75;;
54823;SDS011;40724;53.196;5.980;2022-12-24T09:44:57;42.00;;;10.15;;
54823;SDS011;40724;53.196;5.980;2022-12-24T09:47:30;46.90;;;12.52;;
54823;SDS011;40724;53.196;5.980;2022-12-24T09:49:58;35.53;;;9.13;;
54823;SDS011;40724;53.196;5.980;2022-12-24T09:52:32;33.03;;;11.82;;
54823;SDS011;40724;53.196;5.980;2022-12-24T09:57:33;32.53;;;9.43;;
54823;SDS011;40724;53.196;5.980;2022-12-24T10:00:00;31.15;;;11.15;;
54823;SDS011;40724;53.196;5.980;2022-12-24T10:02:27;26.98;;;9.30;;
54823;SDS011;40724;53.196;5.980;2022-12-24T10:04:53;23.10;;;8.75;;
54823;SDS011;40724;53.196;5.980;2022-12-24T10:10:05;26.27;;;8.68;;
54823;SDS011;40724;53.196;5.980;2022-12-24T10:28:18;40.47;;;11.32;;
54823;SDS011;40724;53.196;5.980;2022-12-24T10:30:46;27.65;;;9.60;;
54823;SDS011;40724;53.196;5.980;2022-12-24T10:33:36;35.35;;;11.23;;
54823;SDS011;40724;53.196;5.980;2022-12-24T10:36:00;38.22;;;12.55;;
54823;SDS011;40724;53.196;5.980;2022-12-24T10:38:26;35.45;;;15.68;;
54823;SDS011;40724;53.196;5.980;2022-12-24T10:40:53;33.60;;;11.60;;
54823;SDS011;40724;53.196;5.980;2022-12-24T10:43:22;39.63;;;11.93;;
54823;SDS011;40724;53.196;5.980;2022-12-24T10:45:49;30.65;;;12.45;;
54823;SDS011;40724;53.196;5.980;2022-12-24T10:48:21;37.15;;;13.70;;
54823;SDS011;40724;53.196;5.980;2022-12-24T10:50:51;35.03;;;13.52;;
54823;SDS011;40724;53.196;5.980;2022-12-24T10:53:20;32.63;;;10.98;;
54823;SDS011;40724;53.196;5.980;2022-12-24T10:55:48;25.45;;;9.23;;
54823;SDS011;40724;53.196;5.980;2022-12-24T10:58:15;37.15;;;11.90;;
54823;SDS011;40724;53.196;5.980;2022-12-24T11:00:41;41.00;;;15.93;;
54823;SDS011;40724;53.196;5.980;2022-12-24T11:05:43;28.08;;;9.52;;
54823;SDS011;40724;53.196;5.980;2022-12-24T11:10:40;25.25;;;9.00;;
54823;SDS011;40724;53.196;5.980;2022-12-24T11:18:48;22.05;;;7.50;;
54823;SDS011;40724;53.196;5.980;2022-12-24T11:21:19;24.35;;;7.18;;
54823;SDS011;40724;53.196;5.980;2022-12-24T11:23:50;20.10;;;7.90;;
54823;SDS011;40724;53.196;5.980;2022-12-24T11:26:20;20.73;;;8.35;;
54823;SDS011;40724;53.196;5.980;2022-12-24T11:28:53;28.83;;;6.82;;
54823;SDS011;40724;53.196;5.980;2022-12-24T11:31:28;16.83;;;8.25;;
54823;SDS011;40724;53.196;5.980;2022-12-24T11:33:56;26.05;;;7.82;;
54823;SDS011;40724;53.196;5.980;2022-12-24T11:36:23;26.38;;;7.95;;
54823;SDS011;40724;53.196;5.980;2022-12-24T11:38:55;16.83;;;5.03;;
54823;SDS011;40724;53.196;5.980;2022-12-24T11:41:22;19.13;;;7.07;;
54823;SDS011;40724;53.196;5.980;2022-12-24T11:43:50;27.50;;;6.90;;
54823;SDS011;40724;53.196;5.980;2022-12-24T11:46:21;17.33;;;6.50;;
54823;SDS011;40724;53.196;5.980;2022-12-24T11:49:42;23.00;;;7.30;;
54823;SDS011;40724;53.196;5.980;2022-12-24T11:54:32;23.80;;;8.02;;
54823;SDS011;40724;53.196;5.980;2022-12-24T11:57:00;23.00;;;6.93;;
54823;SDS011;40724;53.196;5.980;2022-12-24T11:59:40;19.67;;;7.85;;
54823;SDS011;40724;53.196;5.980;2022-12-24T12:05:12;17.75;;;6.25;;
54823;SDS011;40724;53.196;5.980;2022-12-24T12:07:41;35.20;;;8.23;;
54823;SDS011;40724;53.196;5.980;2022-12-24T12:10:18;16.80;;;7.25;;
54823;SDS011;40724;53.196;5.980;2022-12-24T12:12:52;18.50;;;6.55;;
54823;SDS011;40724;53.196;5.980;2022-12-24T12:15:20;27.20;;;7.35;;
54823;SDS011;40724;53.196;5.980;2022-12-24T12:20:51;22.88;;;6.20;;
54823;SDS011;40724;53.196;5.980;2022-12-24T12:23:21;21.10;;;6.55;;
54823;SDS011;40724;53.196;5.980;2022-12-24T12:28:27;29.02;;;7.00;;
54823;SDS011;40724;53.196;5.980;2022-12-24T12:31:01;15.95;;;6.20;;
54823;SDS011;40724;53.196;5.980;2022-12-24T12:33:40;16.02;;;5.78;;
54823;SDS011;40724;53.196;5.980;2022-12-24T12:36:09;22.17;;;6.82;;
54823;SDS011;40724;53.196;5.980;2022-12-24T12:38:35;22.67;;;5.93;;
54823;SDS011;40724;53.196;5.980;2022-12-24T12:56:53;23.45;;;5.50;;
54823;SDS011;40724;53.196;5.980;2022-12-24T12:59:35;19.58;;;5.75;;
54823;SDS011;40724;53.196;5.980;2022-12-24T13:02:11;25.08;;;6.18;;
54823;SDS011;40724;53.196;5.980;2022-12-24T13:07:33;24.77;;;5.85;;
54823;SDS011;40724;53.196;5.980;2022-12-24T13:25:37;16.25;;;5.40;;
54823;SDS011;40724;53.196;5.980;2022-12-24T13:30:45;11.95;;;4.68;;
54823;SDS011;40724;53.196;5.980;2022-12-24T13:33:58;25.20;;;6.97;;
54823;SDS011;40724;53.196;5.980;2022-12-24T13:35:59;15.55;;;4.70;;
54823;SDS011;40724;53.196;5.980;2022-12-24T13:40:52;16.92;;;7.15;;
54823;SDS011;40724;53.196;5.980;2022-12-24T13:43:18;11.57;;;4.72;;
54823;SDS011;40724;53.196;5.980;2022-12-24T13:45:45;14.18;;;4.95;;
54823;SDS011;40724;53.196;5.980;2022-12-24T13:50:48;13.20;;;5.22;;
54823;SDS011;40724;53.196;5.980;2022-12-24T13:56:05;15.55;;;6.00;;
54823;SDS011;40724;53.196;5.980;2022-12-24T13:58:32;12.90;;;5.87;;
54823;SDS011;40724;53.196;5.980;2022-12-24T14:01:00;15.40;;;4.93;;
54823;SDS011;40724;53.196;5.980;2022-12-24T14:03:32;16.77;;;4.93;;
54823;SDS011;40724;53.196;5.980;2022-12-24T14:06:01;10.98;;;5.65;;
54823;SDS011;40724;53.196;5.980;2022-12-24T14:08:38;19.85;;;6.30;;
54823;SDS011;40724;53.196;5.980;2022-12-24T14:11:09;20.55;;;6.90;;
54823;SDS011;40724;53.196;5.980;2022-12-24T14:18:31;16.33;;;6.28;;
54823;SDS011;40724;53.196;5.980;2022-12-24T14:20:59;17.00;;;7.40;;
54823;SDS011;40724;53.196;5.980;2022-12-24T14:23:44;16.10;;;5.35;;
54823;SDS011;40724;53.196;5.980;2022-12-24T14:26:19;17.58;;;6.57;;
54823;SDS011;40724;53.196;5.980;2022-12-24T14:28:56;18.40;;;7.00;;
54823;SDS011;40724;53.196;5.980;2022-12-24T14:31:23;20.67;;;6.70;;
54823;SDS011;40724;53.196;5.980;2022-12-24T14:33:49;18.02;;;6.40;;
54823;SDS011;40724;53.196;5.980;2022-12-24T14:36:19;25.35;;;6.72;;
54823;SDS011;40724;53.196;5.980;2022-12-24T14:38:47;19.30;;;6.75;;
54823;SDS011;40724;53.196;5.980;2022-12-24T14:46:44;13.73;;;5.20;;
54823;SDS011;40724;53.196;5.980;2022-12-24T14:49:24;16.35;;;5.50;;
54823;SDS011;40724;53.196;5.980;2022-12-24T14:54:37;18.20;;;6.40;;
54823;SDS011;40724;53.196;5.980;2022-12-24T15:02:27;18.00;;;5.25;;
54823;SDS011;40724;53.196;5.980;2022-12-24T15:05:16;17.05;;;5.30;;
54823;SDS011;40724;53.196;5.980;2022-12-24T15:07:48;15.13;;;5.55;;
54823;SDS011;40724;53.196;5.980;2022-12-24T15:10:32;15.40;;;4.65;;
54823;SDS011;40724;53.196;5.980;2022-12-24T15:13:01;20.30;;;6.15;;
54823;SDS011;40724;53.196;5.980;2022-12-24T15:15:41;17.77;;;5.18;;
54823;SDS011;40724;53.196;5.980;2022-12-24T15:18:09;14.35;;;5.07;;
54823;SDS011;40724;53.196;5.980;2022-12-24T15:20:41;13.75;;;4.85;;
54823;SDS011;40724;53.196;5.980;2022-12-24T15:23:16;12.88;;;5.63;;
54823;SDS011;40724;53.196;5.980;2022-12-24T15:25:44;18.05;;;5.50;;
54823;SDS011;40724;53.196;5.980;2022-12-24T15:28:15;17.42;;;5.18;;
54823;SDS011;40724;53.196;5.980;2022-12-24T15:30:44;15.38;;;6.05;;
54823;SDS011;40724;53.196;5.980;2022-12-24T15:33:11;18.92;;;5.05;;
54823;SDS011;40724;53.196;5.980;2022-12-24T15:38:22;20.95;;;5.45;;
54823;SDS011;40724;53.196;5.980;2022-12-24T15:40:56;16.63;;;4.82;;
54823;SDS011;40724;53.196;5.980;2022-12-24T15:43:23;15.30;;;5.32;;
54823;SDS011;40724;53.196;5.980;2022-12-24T15:45:50;16.45;;;6.28;;
54823;SDS011;40724;53.196;5.980;2022-12-24T15:48:25;12.30;;;4.65;;
54823;SDS011;40724;53.196;5.980;2022-12-24T15:50:56;23.63;;;6.00;;
54823;SDS011;40724;53.196;5.980;2022-12-24T15:53:25;20.33;;;5.38;;
54823;SDS011;40724;53.196;5.980;2022-12-24T15:58:25;20.80;;;6.00;;
54823;SDS011;40724;53.196;5.980;2022-12-24T16:03:33;17.55;;;5.57;;
54823;SDS011;40724;53.196;5.980;2022-12-24T16:08:29;21.17;;;7.07;;
54823;SDS011;40724;53.196;5.980;2022-12-24T16:13:29;15.93;;;5.25;;
54823;SDS011;40724;53.196;5.980;2022-12-24T16:15:56;21.20;;;5.53;;
54823;SDS011;40724;53.196;5.980;2022-12-24T16:18:24;20.08;;;5.70;;
54823;SDS011;40724;53.196;5.980;2022-12-24T16:20:51;16.00;;;5.47;;
54823;SDS011;40724;53.196;5.980;2022-12-24T16:23:18;20.95;;;6.07;;
54823;SDS011;40724;53.196;5.980;2022-12-24T16:25:45;12.50;;;6.13;;
54823;SDS011;40724;53.196;5.980;2022-12-24T16:28:12;11.05;;;5.45;;
54823;SDS011;40724;53.196;5.980;2022-12-24T16:30:38;23.63;;;6.53;;
54823;SDS011;40724;53.196;5.980;2022-12-24T16:33:04;14.07;;;6.80;;
54823;SDS011;40724;53.196;5.980;2022-12-24T16:35:31;22.27;;;5.90;;
54823;SDS011;40724;53.196;5.980;2022-12-24T16:38:00;19.90;;;5.63;;
54823;SDS011;40724;53.196;5.980;2022-12-24T16:40:27;16.10;;;5.70;;
54823;SDS011;40724;53.196;5.980;2022-12-24T16:42:54;19.90;;;7.13;;
54823;SDS011;40724;53.196;5.980;2022-12-24T16:45:39;17.40;;;6.22;;
54823;SDS011;40724;53.196;5.980;2022-12-24T16:48:06;21.27;;;5.53;;
54823;SDS011;40724;53.196;5.980;2022-12-24T16:50:32;19.40;;;6.15;;
54823;SDS011;40724;53.196;5.980;2022-12-24T16:52:58;14.90;;;5.63;;
54823;SDS011;40724;53.196;5.980;2022-12-24T16:55:24;20.27;;;5.88;;
54823;SDS011;40724;53.196;5.980;2022-12-24T16:57:50;17.45;;;5.25;;
54823;SDS011;40724;53.196;5.980;2022-12-24T17:00:17;17.98;;;5.70;;